Time;durP1;ratioP1;P1;durP2;ratioP2;P2;SDS_P1;SDS_P2;PMS_P1;PMS_P2;Temp;Humidity;BMP_temperature;BMP_pressure;BME280_temperature;BME280_humidity;BME280_pressure;Samples;Min_cycle;Max_cycle;Signal;HPM_P1;HPM_P2
2023/01/17 00:01:59;;;;;;;4.07;2.30;;;3.90;82.90;;;;;;4992788;28;20209;-88
2023/01/17 00:10:16;;;;;;;4.87;3.20;;;3.80;85.70;;;;;;5019160;28;20166;-89
2023/01/17 00:13:02;;;;;;;4.60;2.60;;;3.80;85.60;;;;;;4992259;28;20163;-89
2023/01/17 00:15:29;;;;;;;7.57;2.97;;;3.90;85.70;;;;;;4974382;28;20189;-88
2023/01/17 00:18:01;;;;;;;4.13;2.70;;;3.80;87.10;;;;;;4986868;28;20179;-90
2023/01/17 00:26:08;;;;;;;6.00;3.13;;;3.50;91.10;;;;;;5000462;28;20174;-89
2023/01/17 01:34:48;;;;;;;8.57;4.40;;;3.00;92.30;;;;;;4984344;28;20187;-87
2023/01/17 01:37:14;;;;;;;6.43;4.10;;;3.00;94.50;;;;;;4980349;28;20175;-87
2023/01/17 01:39:43;;;;;;;6.43;4.20;;;2.90;95.20;;;;;;4975350;28;20545;-88
2023/01/17 01:42:49;;;;;;;9.30;4.67;;;2.80;96.60;;;;;;4983560;28;20183;-88
2023/01/17 01:45:19;;;;;;;8.07;4.53;;;2.80;98.80;;;;;;4967738;28;20187;-87
2023/01/17 01:47:46;;;;;;;5.87;4.60;;;2.80;99.00;;;;;;4965449;28;20356;-85
2023/01/17 01:50:13;;;;;;;7.33;4.77;;;2.80;99.30;;;;;;4969258;28;20176;-89
2023/01/17 01:52:45;;;;;;;11.10;5.57;;;2.70;99.60;;;;;;4967130;28;20203;-90
2023/01/17 01:55:18;;;;;;;7.10;5.23;;;2.60;99.90;;;;;;4963814;28;20258;-88
2023/01/17 01:57:49;;;;;;;10.23;5.53;;;2.60;99.90;;;;;;4966149;28;20201;-88
2023/01/17 02:00:29;;;;;;;9.17;5.23;;;2.60;99.90;;;;;;4980300;28;20548;-89
2023/01/17 02:02:58;;;;;;;10.43;6.73;;;2.70;99.90;;;;;;4950731;28;20207;-87
2023/01/17 02:05:26;;;;;;;7.93;5.03;;;2.60;99.90;;;;;;4962777;28;20184;-86
2023/01/17 02:07:55;;;;;;;10.90;6.30;;;2.60;99.90;;;;;;4980733;28;20747;-88
2023/01/17 02:10:21;;;;;;;6.87;5.07;;;2.70;99.90;;;;;;4963022;28;20176;-89
2023/01/17 02:12:48;;;;;;;7.67;5.43;;;2.60;99.90;;;;;;4980885;28;20191;-88
2023/01/17 02:15:15;;;;;;;9.70;5.53;;;2.60;99.90;;;;;;4962458;28;20533;-88
2023/01/17 02:18:00;;;;;;;7.27;5.80;;;2.60;99.90;;;;;;4962533;28;20255;-87
2023/01/17 02:20:44;;;;;;;10.30;6.30;;;2.60;99.90;;;;;;4965007;28;20226;-86
2023/01/17 02:23:10;;;;;;;12.50;7.10;;;2.50;99.90;;;;;;4978023;28;20211;-88
2023/01/17 02:26:12;;;;;;;10.20;5.93;;;2.30;99.90;;;;;;4965824;28;20368;-86
2023/01/17 02:29:00;;;;;;;8.80;6.60;;;2.30;99.90;;;;;;4964286;28;20647;-87
2023/01/17 02:31:28;;;;;;;9.97;6.70;;;2.50;99.90;;;;;;4961759;28;20180;-86
2023/01/17 02:34:18;;;;;;;10.03;6.50;;;2.40;99.90;;;;;;4980152;28;20664;-87
2023/01/17 02:37:16;;;;;;;9.47;6.60;;;2.40;99.90;;;;;;4962931;28;20183;-88
2023/01/17 02:39:52;;;;;;;12.87;6.13;;;2.30;99.90;;;;;;4964191;28;20207;-87
2023/01/17 02:42:20;;;;;;;11.57;6.70;;;2.30;99.90;;;;;;4983457;28;20535;-87
2023/01/17 02:44:46;;;;;;;11.23;7.10;;;2.30;99.90;;;;;;4967007;28;20226;-88
2023/01/17 02:47:32;;;;;;;9.50;6.90;;;2.20;99.90;;;;;;4965303;28;20263;-88
2023/01/17 02:50:09;;;;;;;10.83;7.70;;;2.20;99.90;;;;;;4964781;28;20274;-90
2023/01/17 02:52:41;;;;;;;13.93;7.00;;;2.10;99.90;;;;;;4970870;28;20542;-88
2023/01/17 02:55:16;;;;;;;10.20;6.87;;;2.10;99.90;;;;;;4979986;28;20162;-88
2023/01/17 02:58:05;;;;;;;9.57;6.73;;;2.10;99.90;;;;;;4999942;28;20211;-89
2023/01/17 03:00:58;;;;;;;12.00;7.37;;;2.00;99.90;;;;;;4993719;28;20168;-88
2023/01/17 03:03:48;;;;;;;8.37;6.70;;;2.00;99.90;;;;;;4988036;28;20207;-86
2023/01/17 03:06:46;;;;;;;11.20;6.60;;;2.00;99.90;;;;;;4982411;28;20179;-86
2023/01/17 03:09:14;;;;;;;9.43;6.97;;;2.00;99.90;;;;;;4959118;28;20179;-85
2023/01/17 03:11:41;;;;;;;10.57;7.00;;;2.10;99.90;;;;;;4980127;28;20171;-88
2023/01/17 03:14:07;;;;;;;10.90;7.13;;;2.00;99.90;;;;;;4980064;28;20265;-87
2023/01/17 03:16:33;;;;;;;10.97;8.23;;;2.00;99.90;;;;;;4978812;28;20218;-88
2023/01/17 03:18:59;;;;;;;10.20;7.73;;;2.10;99.90;;;;;;4979915;28;20657;-88
2023/01/17 03:21:25;;;;;;;10.67;6.90;;;2.00;99.90;;;;;;4980849;28;20175;-88
2023/01/17 03:23:51;;;;;;;9.83;7.53;;;2.10;99.90;;;;;;4978864;28;20209;-89
2023/01/17 03:26:17;;;;;;;12.23;7.63;;;2.00;99.90;;;;;;4979262;28;20175;-87
2023/01/17 03:28:43;;;;;;;10.23;7.07;;;2.00;99.90;;;;;;4997840;28;20177;-88
2023/01/17 03:31:13;;;;;;;8.70;6.53;;;1.90;99.90;;;;;;4980570;28;20171;-88
2023/01/17 03:33:39;;;;;;;10.20;7.27;;;2.10;99.90;;;;;;4996315;28;20171;-88
2023/01/17 03:36:05;;;;;;;10.90;7.10;;;1.90;99.90;;;;;;4977602;28;20174;-88
2023/01/17 03:38:31;;;;;;;9.13;7.40;;;1.90;99.90;;;;;;5002884;28;20183;-89
2023/01/17 03:40:56;;;;;;;9.10;6.43;;;2.00;99.90;;;;;;4991334;28;20175;-88
2023/01/17 03:43:22;;;;;;;9.03;6.30;;;1.90;99.90;;;;;;4994923;28;20209;-88
2023/01/17 03:45:50;;;;;;;11.90;7.10;;;1.90;99.90;;;;;;5001542;28;20197;-88
2023/01/17 03:48:17;;;;;;;9.27;6.50;;;1.80;99.90;;;;;;5001866;28;20167;-88
2023/01/17 03:50:50;;;;;;;9.73;6.77;;;1.80;99.90;;;;;;4991018;28;20178;-87
2023/01/17 03:53:24;;;;;;;13.50;7.20;;;1.90;99.90;;;;;;4980765;28;20213;-88
2023/01/17 03:55:49;;;;;;;10.47;6.63;;;1.80;99.90;;;;;;4985773;28;20254;-88
2023/01/17 03:58:17;;;;;;;9.80;6.83;;;1.90;99.90;;;;;;5001396;28;20213;-87
2023/01/17 04:00:43;;;;;;;11.03;6.70;;;1.80;99.90;;;;;;4995894;28;20238;-88
2023/01/17 04:03:08;;;;;;;8.93;6.27;;;1.80;99.90;;;;;;5002377;28;20206;-87
2023/01/17 04:05:35;;;;;;;10.33;6.30;;;1.70;99.90;;;;;;5002778;28;20175;-85
2023/01/17 04:08:05;;;;;;;11.07;6.37;;;1.70;99.90;;;;;;4995600;28;20175;-88
2023/01/17 04:10:38;;;;;;;12.83;7.10;;;1.70;99.90;;;;;;4982188;28;20634;-88
2023/01/17 04:13:05;;;;;;;8.47;6.80;;;1.70;99.90;;;;;;4987836;28;20166;-88
2023/01/17 04:15:32;;;;;;;8.87;7.27;;;1.70;99.90;;;;;;4986566;28;20182;-89
2023/01/17 04:17:58;;;;;;;11.07;7.03;;;1.60;99.90;;;;;;4989874;28;20170;-87
2023/01/17 04:20:31;;;;;;;13.50;7.07;;;1.80;99.90;;;;;;4988685;28;20222;-88
2023/01/17 04:22:57;;;;;;;12.33;6.97;;;1.70;99.90;;;;;;4987996;28;20206;-86
2023/01/17 04:25:24;;;;;;;10.23;6.47;;;1.70;99.90;;;;;;4994598;28;20234;-86
2023/01/17 04:27:51;;;;;;;10.07;6.37;;;1.80;99.90;;;;;;4997038;28;20202;-86
2023/01/17 04:30:17;;;;;;;11.27;7.83;;;1.60;99.90;;;;;;5002163;28;20155;-86
2023/01/17 04:32:43;;;;;;;9.70;7.70;;;1.60;99.90;;;;;;5002953;28;20161;-85
2023/01/17 04:35:09;;;;;;;9.90;7.40;;;1.80;99.90;;;;;;5002394;28;20185;-87
2023/01/17 04:37:38;;;;;;;12.27;7.67;;;1.60;99.90;;;;;;4995870;28;20171;-89
2023/01/17 04:40:07;;;;;;;11.33;7.50;;;1.60;99.90;;;;;;4987266;28;20607;-87
2023/01/17 04:42:36;;;;;;;10.13;7.60;;;1.70;99.90;;;;;;4986480;28;20636;-89
2023/01/17 04:45:24;;;;;;;12.43;7.10;;;1.70;99.90;;;;;;5004074;28;20182;-89
2023/01/17 04:47:53;;;;;;;10.33;7.57;;;1.80;99.90;;;;;;4989912;28;20686;-84
2023/01/17 04:51:07;;;;;;;11.53;7.33;;;1.80;99.90;;;;;;4981886;28;20472;-86
2023/01/17 04:53:33;;;;;;;12.00;7.80;;;1.70;99.90;;;;;;4979159;28;20171;-86
2023/01/17 04:55:58;;;;;;;9.53;7.90;;;1.70;99.90;;;;;;4977342;28;20281;-87
2023/01/17 04:58:24;;;;;;;11.13;8.10;;;1.60;99.90;;;;;;4972186;28;20187;-86
2023/01/17 05:00:51;;;;;;;11.53;8.50;;;1.70;99.90;;;;;;4977561;28;20179;-84
2023/01/17 05:03:19;;;;;;;11.03;7.93;;;1.60;99.90;;;;;;4980507;28;20208;-88
2023/01/17 05:05:45;;;;;;;12.90;8.60;;;1.60;99.90;;;;;;4962629;28;20171;-88
2023/01/17 05:08:11;;;;;;;10.80;8.63;;;1.80;99.90;;;;;;4964706;28;20210;-88
2023/01/17 05:10:37;;;;;;;14.47;8.37;;;1.60;99.90;;;;;;4966292;28;20183;-87
2023/01/17 05:13:02;;;;;;;11.63;8.77;;;1.70;99.90;;;;;;4982397;28;20164;-87
2023/01/17 05:15:29;;;;;;;11.07;7.90;;;1.70;99.90;;;;;;4981388;28;20183;-88
2023/01/17 05:17:57;;;;;;;14.47;8.20;;;1.90;99.90;;;;;;4998751;28;20187;-86
2023/01/17 05:20:26;;;;;;;12.30;8.20;;;1.80;99.90;;;;;;4971911;28;20655;-88
2023/01/17 05:23:09;;;;;;;10.70;8.10;;;1.80;99.90;;;;;;4962059;28;20532;-88
2023/01/17 05:25:35;;;;;;;12.67;7.67;;;2.10;99.90;;;;;;4959088;28;20202;-89
2023/01/17 05:28:01;;;;;;;12.27;8.57;;;2.00;99.90;;;;;;4958814;28;20523;-87
2023/01/17 05:30:31;;;;;;;11.23;8.80;;;2.00;99.70;;;;;;4959256;28;20231;-88
2023/01/17 05:32:58;;;;;;;10.57;7.70;;;1.90;99.10;;;;;;4957664;28;20270;-88
2023/01/17 05:35:28;;;;;;;14.43;9.37;;;1.90;98.80;;;;;;4958879;28;20175;-88
2023/01/17 05:37:54;;;;;;;10.67;8.30;;;1.90;98.80;;;;;;4958058;28;20179;-89
2023/01/17 05:40:22;;;;;;;11.27;8.50;;;1.90;98.50;;;;;;4958686;28;20168;-87
2023/01/17 05:42:53;;;;;;;10.87;8.10;;;2.00;98.70;;;;;;4959400;28;20180;-88
2023/01/17 05:45:20;;;;;;;10.80;8.10;;;2.20;98.50;;;;;;4978525;28;20272;-87
2023/01/17 05:47:48;;;;;;;13.53;8.73;;;2.30;96.70;;;;;;4960036;28;20172;-89
2023/01/17 05:50:17;;;;;;;13.20;8.70;;;2.40;95.20;;;;;;4958748;28;20187;-89
2023/01/17 05:52:49;;;;;;;12.60;8.07;;;2.40;93.30;;;;;;4959093;28;20171;-88
2023/01/17 05:55:15;;;;;;;10.83;8.13;;;2.40;92.90;;;;;;4978167;28;20175;-89
2023/01/17 05:57:40;;;;;;;13.00;8.73;;;2.50;92.20;;;;;;4963142;28;20207;-88
2023/01/17 06:00:07;;;;;;;12.67;8.77;;;2.70;91.20;;;;;;4957744;28;20277;-89
2023/01/17 06:02:32;;;;;;;12.67;8.60;;;2.60;90.60;;;;;;4958567;28;20182;-88
2023/01/17 06:04:59;;;;;;;12.43;8.63;;;2.60;89.60;;;;;;4958955;28;20215;-88
2023/01/17 06:07:26;;;;;;;13.13;8.67;;;2.50;88.40;;;;;;4961386;28;20311;-87
2023/01/17 06:09:52;;;;;;;11.80;8.77;;;2.50;87.80;;;;;;4969431;28;20199;-89
2023/01/17 06:12:17;;;;;;;13.47;9.53;;;2.50;87.80;;;;;;4971231;28;20175;-88
2023/01/17 06:14:44;;;;;;;12.67;10.03;;;2.60;87.70;;;;;;4966207;28;20191;-88
2023/01/17 06:17:18;;;;;;;12.50;8.67;;;2.70;86.90;;;;;;4961012;28;20172;-88
2023/01/17 06:19:44;;;;;;;13.23;9.17;;;2.70;84.60;;;;;;4976756;28;20179;-90
2023/01/17 06:22:11;;;;;;;13.07;9.03;;;2.70;84.40;;;;;;4959865;28;20179;-87
2023/01/17 06:24:36;;;;;;;13.27;8.67;;;2.70;84.40;;;;;;4963187;28;20207;-88
2023/01/17 06:27:02;;;;;;;13.30;8.47;;;2.80;83.40;;;;;;4984399;28;20211;-86
2023/01/17 06:29:28;;;;;;;14.67;8.93;;;2.70;81.50;;;;;;4978829;28;20191;-87
2023/01/17 06:31:56;;;;;;;12.93;8.00;;;2.60;81.10;;;;;;4973996;28;20176;-90
2023/01/17 06:34:24;;;;;;;12.67;9.40;;;2.50;82.10;;;;;;4969333;28;20667;-90
2023/01/17 06:36:50;;;;;;;10.57;8.17;;;2.50;82.10;;;;;;4966606;28;20183;-92
2023/01/17 06:39:15;;;;;;;12.53;8.40;;;2.50;83.30;;;;;;4970445;28;20175;-89
2023/01/17 06:41:41;;;;;;;13.57;8.73;;;2.40;82.30;;;;;;4967152;28;20244;-87
2023/01/17 06:44:08;;;;;;;10.80;8.23;;;2.30;82.50;;;;;;4967709;28;20211;-91
2023/01/17 06:46:35;;;;;;;10.93;8.50;;;2.10;86.10;;;;;;4963372;28;20206;-89
2023/01/17 06:49:01;;;;;;;10.87;8.00;;;2.10;88.50;;;;;;4969399;28;20171;-90
2023/01/17 06:51:26;;;;;;;12.97;8.87;;;2.00;90.10;;;;;;4979233;28;20164;-90
2023/01/17 06:53:52;;;;;;;12.37;8.47;;;1.90;90.80;;;;;;4978406;28;20199;-88
2023/01/17 06:56:18;;;;;;;12.60;8.37;;;1.90;91.60;;;;;;4968555;28;20202;-91
2023/01/17 06:58:51;;;;;;;15.50;8.53;;;2.00;92.30;;;;;;4978978;28;20191;-91
2023/01/17 07:01:18;;;;;;;12.57;8.17;;;1.90;92.10;;;;;;4980948;28;20179;-91
2023/01/17 07:03:43;;;;;;;13.20;8.63;;;1.90;92.40;;;;;;4956526;28;20231;-89
2023/01/17 07:06:09;;;;;;;14.43;8.87;;;1.90;92.70;;;;;;4966752;28;20542;-90
2023/01/17 07:08:35;;;;;;;14.50;8.67;;;1.90;92.70;;;;;;4963947;28;20415;-90
2023/01/17 07:11:09;;;;;;;12.87;7.63;;;2.00;93.00;;;;;;4963603;28;20184;-88
2023/01/17 07:13:36;;;;;;;12.93;8.60;;;2.20;92.80;;;;;;4962215;28;20314;-86
2023/01/17 07:16:04;;;;;;;14.60;8.70;;;2.40;91.40;;;;;;4961091;28;20186;-87
2023/01/17 07:18:31;;;;;;;13.87;8.97;;;2.50;89.00;;;;;;4962578;28;20184;-87
2023/01/17 07:20:56;;;;;;;15.77;8.90;;;2.40;85.90;;;;;;4962130;28;20187;-87
2023/01/17 07:23:23;;;;;;;17.13;9.00;;;2.60;86.30;;;;;;4963301;28;20214;-89
2023/01/17 07:25:53;;;;;;;13.20;8.77;;;2.70;83.10;;;;;;4963981;28;20541;-88
2023/01/17 07:28:19;;;;;;;13.67;8.57;;;2.60;77.80;;;;;;4964530;28;20210;-88
2023/01/17 07:30:45;;;;;;;14.50;9.50;;;2.80;72.50;;;;;;4967245;28;20167;-86
2023/01/17 07:33:11;;;;;;;14.77;9.53;;;3.00;63.60;;;;;;4981881;28;20191;-88
2023/01/17 07:35:37;;;;;;;14.53;10.00;;;3.00;58.70;;;;;;4979140;28;20188;-90
2023/01/17 07:38:10;;;;;;;15.97;9.00;;;2.80;59.60;;;;;;4966233;28;20186;-86
2023/01/17 07:40:36;;;;;;;13.23;9.00;;;2.90;57.20;;;;;;4960917;28;20283;-86
2023/01/17 07:43:12;;;;;;;13.57;9.10;;;2.80;55.60;;;;;;4964472;28;20204;-85
2023/01/17 07:45:49;;;;;;;13.73;9.60;;;2.80;57.90;;;;;;4969029;28;20187;-87
2023/01/17 07:48:17;;;;;;;14.60;9.53;;;2.50;60.00;;;;;;4966238;28;20198;-87
2023/01/17 07:50:43;;;;;;;13.30;9.00;;;2.50;65.90;;;;;;4964227;28;20172;-86
2023/01/17 07:53:09;;;;;;;13.53;9.30;;;2.50;69.70;;;;;;4962691;28;20187;-87
2023/01/17 07:55:41;;;;;;;16.27;9.90;;;2.60;72.80;;;;;;4964776;28;20176;-88
2023/01/17 07:58:10;;;;;;;15.13;8.87;;;2.80;75.50;;;;;;4960172;28;20214;-88
2023/01/17 08:00:35;;;;;;;11.93;8.93;;;2.70;74.40;;;;;;4979082;28;20246;-88
2023/01/17 08:03:05;;;;;;;13.20;9.03;;;2.70;74.40;;;;;;4960724;28;20667;-88
2023/01/17 08:05:30;;;;;;;16.73;9.23;;;2.70;74.70;;;;;;4960089;28;20274;-86
2023/01/17 08:07:56;;;;;;;15.13;9.07;;;2.70;74.80;;;;;;4959281;28;20203;-85
2023/01/17 08:10:22;;;;;;;13.60;8.73;;;2.70;75.20;;;;;;4960325;28;20179;-86
2023/01/17 08:12:50;;;;;;;17.07;9.40;;;2.60;74.30;;;;;;4961894;28;20180;-87
2023/01/17 08:15:17;;;;;;;19.13;8.57;;;2.80;74.50;;;;;;4966090;28;20183;-87
2023/01/17 08:17:52;;;;;;;13.07;8.90;;;2.70;71.70;;;;;;4979954;28;20163;-88
2023/01/17 08:20:20;;;;;;;18.07;8.90;;;2.80;71.20;;;;;;4995222;28;20266;-88
2023/01/17 08:22:46;;;;;;;12.53;8.53;;;2.80;70.80;;;;;;4970560;28;20179;-86
2023/01/17 08:25:12;;;;;;;11.80;7.97;;;2.90;71.00;;;;;;4966024;28;20183;-88
2023/01/17 08:27:40;;;;;;;14.10;8.37;;;3.10;70.20;;;;;;4960745;28;20195;-87
2023/01/17 08:30:07;;;;;;;12.73;8.43;;;3.00;68.60;;;;;;4977098;28;20187;-87
2023/01/17 08:32:33;;;;;;;13.10;8.87;;;3.00;67.60;;;;;;4952653;28;20188;-87
2023/01/17 08:35:00;;;;;;;15.30;9.03;;;3.10;66.80;;;;;;4941069;29;20172;-87
2023/01/17 08:37:25;;;;;;;13.57;8.53;;;2.90;62.10;;;;;;4942024;29;20204;-87
2023/01/17 08:39:51;;;;;;;14.00;7.77;;;3.00;63.20;;;;;;4955060;28;20168;-87
2023/01/17 08:42:18;;;;;;;15.97;8.10;;;2.80;65.70;;;;;;4957033;28;20728;-88
2023/01/17 08:44:43;;;;;;;17.00;8.30;;;2.80;66.30;;;;;;4951252;29;20212;-88
2023/01/17 08:47:12;;;;;;;12.63;8.03;;;2.80;66.00;;;;;;4956290;29;20176;-88
2023/01/17 08:49:40;;;;;;;11.73;7.73;;;2.80;66.20;;;;;;4957869;29;20164;-87
2023/01/17 08:52:13;;;;;;;14.43;8.77;;;2.90;65.40;;;;;;4960228;28;20191;-87
2023/01/17 08:54:39;;;;;;;15.07;8.07;;;3.20;63.70;;;;;;4963353;28;20160;-85
2023/01/17 08:57:05;;;;;;;10.70;8.00;;;3.50;58.60;;;;;;4962786;28;20215;-86
2023/01/17 08:59:33;;;;;;;17.63;9.03;;;3.50;50.30;;;;;;4994526;28;20167;-88
2023/01/17 09:02:00;;;;;;;16.13;7.97;;;3.60;43.50;;;;;;5000788;28;20179;-86
2023/01/17 09:04:29;;;;;;;14.37;8.73;;;3.60;42.00;;;;;;5000808;28;20226;-87
2023/01/17 09:06:56;;;;;;;11.77;7.33;;;3.60;42.60;;;;;;5018720;28;20160;-88
2023/01/17 09:09:22;;;;;;;15.70;8.30;;;3.50;42.00;;;;;;5000852;28;20167;-87
2023/01/17 09:11:52;;;;;;;12.50;8.33;;;3.60;39.10;;;;;;4992131;28;20205;-88
2023/01/17 09:14:18;;;;;;;15.20;8.67;;;3.50;38.10;;;;;;4996090;28;20182;-88
2023/01/17 09:16:47;;;;;;;13.47;7.83;;;3.50;38.40;;;;;;4989718;28;20271;-88
2023/01/17 09:19:16;;;;;;;13.10;8.07;;;3.70;36.00;;;;;;4980332;28;20262;-87
2023/01/17 09:21:41;;;;;;;14.00;7.63;;;3.60;30.70;;;;;;4979626;28;20666;-87
2023/01/17 09:24:10;;;;;;;11.53;8.00;;;3.60;29.00;;;;;;4979163;28;20235;-85
2023/01/17 09:26:35;;;;;;;15.07;7.70;;;3.50;30.00;;;;;;4978845;28;20261;-87
2023/01/17 09:29:01;;;;;;;14.27;8.50;;;3.30;34.10;;;;;;4979342;28;20642;-87
2023/01/17 09:31:27;;;;;;;13.93;8.80;;;3.40;35.10;;;;;;4977977;28;20182;-88
2023/01/17 09:33:55;;;;;;;11.70;9.13;;;3.60;36.60;;;;;;4976153;28;20615;-88
2023/01/17 09:36:22;;;;;;;12.27;8.23;;;3.40;38.00;;;;;;4977972;28;20202;-88
2023/01/17 09:38:48;;;;;;;12.80;8.00;;;3.50;39.60;;;;;;4978620;28;20390;-88
2023/01/17 09:41:20;;;;;;;18.10;8.03;;;3.40;40.70;;;;;;4978225;28;20183;-88
2023/01/17 09:44:13;;;;;;;12.47;8.20;;;3.60;39.00;;;;;;4979187;28;20264;-88
2023/01/17 09:46:43;;;;;;;16.07;8.67;;;3.50;38.50;;;;;;4984936;28;20262;-87
2023/01/17 09:49:22;;;;;;;14.27;10.07;;;3.40;40.70;;;;;;4993558;28;20167;-87
2023/01/17 09:51:48;;;;;;;11.80;8.50;;;3.50;43.80;;;;;;5000180;28;20159;-88
2023/01/17 09:54:26;;;;;;;15.33;8.73;;;3.40;40.60;;;;;;5000822;28;20187;-86
2023/01/17 09:57:18;;;;;;;16.17;10.00;;;3.20;44.00;;;;;;4992564;28;20214;-87
2023/01/17 10:00:12;;;;;;;14.27;9.60;;;3.40;48.90;;;;;;4962065;28;20195;-88
2023/01/17 10:02:57;;;;;;;15.50;8.93;;;3.60;49.70;;;;;;4963501;28;20171;-88
2023/01/17 10:05:52;;;;;;;14.30;9.23;;;3.80;46.00;;;;;;4969916;28;20184;-86
2023/01/17 10:08:55;;;;;;;17.00;9.63;;;4.00;38.90;;;;;;4975269;28;20204;-87
2023/01/17 10:11:52;;;;;;;13.50;9.60;;;4.20;29.80;;;;;;4956392;28;20171;-87
2023/01/17 10:14:41;;;;;;;13.83;9.23;;;4.40;25.20;;;;;;4960324;28;20556;-86
2023/01/17 10:17:35;;;;;;;12.77;8.70;;;4.60;21.20;;;;;;4962258;28;20183;-86
2023/01/17 10:20:38;;;;;;;14.43;9.60;;;4.70;16.50;;;;;;4963357;28;20198;-86
2023/01/17 10:23:32;;;;;;;14.33;8.13;;;4.90;17.30;;;;;;4962178;28;20182;-87
2023/01/17 10:26:11;;;;;;;15.07;9.50;;;5.10;1.00;;;;;;4962000;28;20640;-86
2023/01/17 10:28:41;;;;;;;13.03;8.57;;;5.20;1.00;;;;;;4962405;28;20640;-86
2023/01/17 10:31:12;;;;;;;14.03;8.57;;;5.20;1.00;;;;;;4961169;28;20655;-85
2023/01/17 10:33:54;;;;;;;14.87;8.70;;;5.20;1.00;;;;;;4961523;28;20168;-86
2023/01/17 10:36:21;;;;;;;17.37;7.60;;;5.20;1.00;;;;;;4962110;28;20571;-85
2023/01/17 10:38:51;;;;;;;14.73;7.77;;;5.30;1.00;;;;;;4967333;28;20227;-90
2023/01/17 10:41:25;;;;;;;12.60;7.07;;;5.20;1.00;;;;;;4964852;28;20214;-84
2023/01/17 10:44:16;;;;;;;13.87;8.17;;;5.30;1.00;;;;;;4962378;28;20203;-86
2023/01/17 10:47:10;;;;;;;12.37;7.87;;;5.30;1.00;;;;;;4961623;28;20633;-84
2023/01/17 10:49:45;;;;;;;14.93;7.27;;;5.50;1.00;;;;;;4962778;28;20186;-84
2023/01/17 10:53:04;;;;;;;10.80;8.27;;;5.70;1.00;;;;;;4962499;28;20624;-85
2023/01/17 10:55:50;;;;;;;12.93;7.30;;;5.90;1.00;;;;;;4941799;28;20615;-87
2023/01/17 10:58:16;;;;;;;13.23;8.30;;;6.10;1.00;;;;;;4961495;28;20250;-86
2023/01/17 11:01:15;;;;;;;14.43;7.80;;;6.30;1.00;;;;;;4970805;28;20175;-83
2023/01/17 11:03:43;;;;;;;10.07;6.73;;;6.40;1.00;;;;;;4961183;28;20258;-86
2023/01/17 11:06:22;;;;;;;13.93;7.83;;;6.60;1.00;;;;;;4982703;28;20160;-86
2023/01/17 11:08:54;;;;;;;18.13;8.90;;;6.60;1.00;;;;;;4965836;28;20211;-87
2023/01/17 11:11:24;;;;;;;14.73;8.13;;;6.40;1.00;;;;;;4968804;28;20198;-87
2023/01/17 11:13:56;;;;;;;12.07;7.07;;;6.30;1.00;;;;;;4962534;28;20179;-86
2023/01/17 11:16:28;;;;;;;15.17;7.60;;;6.00;1.00;;;;;;4964518;28;20172;-87
2023/01/17 11:19:16;;;;;;;13.97;7.93;;;6.10;1.00;;;;;;4984475;28;20184;-87
2023/01/17 11:22:00;;;;;;;11.73;6.67;;;6.10;1.00;;;;;;4982798;28;20164;-85
2023/01/17 11:24:35;;;;;;;17.77;8.50;;;6.00;1.00;;;;;;4984041;28;20234;-85
2023/01/17 11:27:06;;;;;;;13.33;6.53;;;6.20;1.00;;;;;;4983932;28;20178;-86
2023/01/17 11:29:39;;;;;;;15.77;6.93;;;6.30;1.00;;;;;;4983108;28;20188;-87
2023/01/17 11:32:37;;;;;;;15.67;5.33;;;6.50;1.00;;;;;;4961273;28;20176;-87
2023/01/17 11:35:11;;;;;;;8.33;4.17;;;6.60;1.00;;;;;;4969181;28;20246;-86
2023/01/17 11:37:47;;;;;;;9.93;4.30;;;6.70;1.00;;;;;;4963527;28;20187;-87
2023/01/17 11:40:28;;;;;;;8.80;5.00;;;6.70;1.00;;;;;;4983948;28;20213;-87
2023/01/17 11:43:22;;;;;;;7.93;3.50;;;6.70;1.00;;;;;;4964135;28;20183;-85
2023/01/17 11:46:19;;;;;;;8.33;3.90;;;6.80;1.00;;;;;;4963542;28;20172;-88
2023/01/17 11:48:56;;;;;;;9.53;4.97;;;6.80;1.00;;;;;;4964355;28;20527;-87
2023/01/17 11:51:24;;;;;;;9.80;4.30;;;7.00;1.00;;;;;;4959753;28;20174;-87
2023/01/17 11:53:52;;;;;;;8.50;4.10;;;7.10;1.00;;;;;;4961583;28;20172;-87
2023/01/17 11:56:29;;;;;;;11.27;4.33;;;7.20;1.00;;;;;;4959666;28;20211;-87
2023/01/17 11:59:29;;;;;;;7.97;3.57;;;7.20;1.00;;;;;;4962417;28;20207;-87
2023/01/17 12:01:57;;;;;;;9.03;4.00;;;6.60;1.00;;;;;;4951675;28;20191;-88
2023/01/17 12:04:44;;;;;;;6.80;4.00;;;6.30;1.00;;;;;;4981485;28;20229;-86
2023/01/17 12:07:40;;;;;;;8.30;4.57;;;6.10;1.00;;;;;;5000584;28;20186;-86
2023/01/17 12:10:18;;;;;;;11.70;4.10;;;5.90;1.00;;;;;;4981871;28;20195;-87
2023/01/17 12:16:27;;;;;;;11.87;4.67;;;5.90;1.00;;;;;;4977893;28;20174;-87
2023/01/17 12:19:17;;;;;;;13.03;4.23;;;5.90;1.00;;;;;;4962503;28;20180;-87
2023/01/17 12:21:57;;;;;;;8.80;4.20;;;6.20;1.00;;;;;;4972728;28;20178;-87
2023/01/17 12:24:49;;;;;;;10.33;4.23;;;6.50;1.00;;;;;;4982425;28;20349;-87
2023/01/17 12:27:30;;;;;;;8.13;3.30;;;6.60;1.00;;;;;;4983282;28;20168;-86
2023/01/17 12:30:33;;;;;;;6.90;3.30;;;6.50;1.00;;;;;;4974400;28;20644;-85
2023/01/17 12:33:24;;;;;;;6.43;3.20;;;6.30;1.00;;;;;;4961246;28;20552;-86
2023/01/17 12:36:01;;;;;;;10.27;3.93;;;5.90;1.00;;;;;;4960710;28;20620;-87
2023/01/17 12:38:38;;;;;;;8.43;3.50;;;5.90;1.00;;;;;;4977304;28;20183;-86
2023/01/17 12:41:37;;;;;;;8.73;3.70;;;6.00;1.00;;;;;;4966786;28;20179;-86
2023/01/17 12:44:08;;;;;;;9.57;4.20;;;5.90;1.00;;;;;;4955805;28;20239;-87
2023/01/17 12:46:42;;;;;;;8.23;3.53;;;5.80;1.00;;;;;;4961476;28;20206;-87
2023/01/17 12:49:27;;;;;;;10.73;3.60;;;5.70;1.00;;;;;;4961630;28;20270;-86
2023/01/17 12:52:03;;;;;;;7.23;3.30;;;5.50;1.00;;;;;;4965332;28;20172;-87
2023/01/17 12:54:52;;;;;;;9.90;3.20;;;5.40;1.00;;;;;;4977015;28;20263;-86
2023/01/17 12:57:28;;;;;;;6.93;3.40;;;5.30;1.00;;;;;;4973952;28;20215;-87
2023/01/17 13:00:02;;;;;;;9.13;3.33;;;5.20;1.00;;;;;;4962554;29;20193;-87
2023/01/17 13:02:49;;;;;;;8.60;2.83;;;5.20;1.00;;;;;;4954184;28;20187;-86
2023/01/17 13:05:35;;;;;;;6.47;3.07;;;5.20;1.00;;;;;;4948031;29;20211;-87
2023/01/17 13:08:24;;;;;;;7.40;2.97;;;5.10;1.00;;;;;;4944379;29;20167;-87
2023/01/17 13:10:58;;;;;;;6.87;3.13;;;5.10;1.00;;;;;;4955583;28;20172;-87
2023/01/17 13:13:26;;;;;;;9.63;3.10;;;5.20;1.00;;;;;;4946059;29;20195;-86
2023/01/17 13:16:04;;;;;;;8.10;2.60;;;5.30;1.00;;;;;;4953788;29;20187;-84
2023/01/17 13:18:32;;;;;;;10.40;2.87;;;5.30;1.00;;;;;;4960837;28;20164;-87
2023/01/17 13:21:33;;;;;;;9.37;2.90;;;5.30;1.00;;;;;;4952094;28;20198;-86
2023/01/17 13:24:00;;;;;;;4.70;2.30;;;5.20;1.00;;;;;;4962139;28;20226;-86
2023/01/17 13:26:47;;;;;;;9.37;3.07;;;5.20;1.00;;;;;;4962003;28;20176;-86
2023/01/17 13:29:35;;;;;;;8.70;3.27;;;5.00;1.00;;;;;;4963115;28;20167;-85
2023/01/17 13:32:32;;;;;;;6.93;2.40;;;5.10;1.00;;;;;;4962982;28;20165;-85
2023/01/17 13:35:43;;;;;;;6.50;2.80;;;5.20;1.00;;;;;;4962243;28;20232;-86
2023/01/17 13:38:56;;;;;;;7.07;2.47;;;5.20;1.00;;;;;;4951256;29;20235;-86
2023/01/17 13:41:48;;;;;;;9.37;2.90;;;5.10;1.00;;;;;;4943112;29;20186;-88
2023/01/17 13:44:23;;;;;;;5.30;2.40;;;5.20;1.00;;;;;;4952480;28;20271;-86
2023/01/17 13:46:58;;;;;;;9.67;3.50;;;5.20;1.00;;;;;;4959930;28;20267;-86
2023/01/17 13:49:42;;;;;;;9.63;3.90;;;5.20;1.00;;;;;;4947303;29;20649;-86
2023/01/17 13:52:23;;;;;;;9.30;3.53;;;5.40;1.00;;;;;;4941754;29;20172;-87
2023/01/17 13:54:51;;;;;;;8.40;3.47;;;5.30;1.00;;;;;;4941127;29;20180;-87
2023/01/17 13:57:27;;;;;;;11.23;3.87;;;5.20;1.00;;;;;;4958478;29;20679;-87
2023/01/17 13:59:54;;;;;;;8.10;3.53;;;5.10;1.00;;;;;;4940090;29;20239;-86
2023/01/17 14:02:32;;;;;;;7.33;3.80;;;5.00;1.00;;;;;;4958640;29;20192;-86
2023/01/17 14:05:04;;;;;;;9.50;3.33;;;5.00;1.00;;;;;;4940537;29;20303;-87
2023/01/17 14:07:33;;;;;;;11.07;3.73;;;5.10;1.00;;;;;;4942113;29;20177;-87
2023/01/17 14:10:00;;;;;;;7.60;4.00;;;5.00;1.00;;;;;;4960866;29;20176;-87
2023/01/17 14:12:31;;;;;;;8.83;3.00;;;5.00;1.00;;;;;;4970351;28;20232;-87
2023/01/17 14:15:00;;;;;;;5.63;3.00;;;5.00;1.00;;;;;;4971499;28;20185;-87
2023/01/17 14:17:45;;;;;;;11.20;3.20;;;4.90;1.00;;;;;;4971356;29;20172;-86
2023/01/17 14:20:11;;;;;;;5.40;3.03;;;4.90;1.00;;;;;;4960582;29;20173;-87
2023/01/17 14:23:00;;;;;;;11.70;3.30;;;4.90;1.00;;;;;;4960116;29;20169;-86
2023/01/17 14:25:37;;;;;;;7.00;2.50;;;4.90;1.00;;;;;;4956463;29;20212;-87
2023/01/17 14:28:25;;;;;;;11.13;3.90;;;4.90;1.00;;;;;;4957188;29;20296;-87
2023/01/17 14:30:54;;;;;;;7.97;3.57;;;4.90;1.00;;;;;;4934780;29;20188;-87
2023/01/17 14:33:27;;;;;;;5.47;2.97;;;4.90;1.00;;;;;;4940945;29;20243;-87
2023/01/17 14:36:02;;;;;;;6.97;3.90;;;4.90;1.00;;;;;;4956474;29;20578;-87
2023/01/17 14:38:33;;;;;;;9.90;3.77;;;4.90;1.00;;;;;;4956079;29;20183;-86
2023/01/17 14:41:03;;;;;;;7.77;3.77;;;5.00;1.00;;;;;;4956881;29;20177;-86
2023/01/17 14:43:33;;;;;;;6.77;3.37;;;5.20;1.00;;;;;;4956885;29;20208;-87
2023/01/17 14:46:05;;;;;;;7.23;2.83;;;5.10;1.00;;;;;;4948918;28;20199;-87
2023/01/17 14:48:31;;;;;;;7.17;2.70;;;5.00;1.00;;;;;;4962939;28;20221;-87